Time;durP1;ratioP1;P1;durP2;ratioP2;P2;SDS_P1;SDS_P2;PMS_P1;PMS_P2;Temp;Humidity;BMP_temperature;BMP_pressure;BME280_temperature;BME280_humidity;BME280_pressure;Samples;Min_cycle;Max_cycle;Signal;HPM_P1;HPM_P2
2023/03/14 00:00:34;;;;;;;4.80;1.67;;;13.10;1.00;;;;;;5051513;28;21336;-77
2023/03/14 00:03:02;;;;;;;3.90;1.30;;;13.00;1.00;;;;;;5053603;28;20947;-78
2023/03/14 00:05:30;;;;;;;4.50;1.40;;;13.00;1.00;;;;;;5060671;28;20477;-76
2023/03/14 00:07:57;;;;;;;4.83;1.20;;;12.90;1.00;;;;;;5057487;28;20602;-75
2023/03/14 00:10:24;;;;;;;5.70;1.27;;;12.90;1.00;;;;;;5060713;28;20632;-77
2023/03/14 00:12:51;;;;;;;5.43;1.50;;;12.90;1.00;;;;;;5061355;28;20984;-76
2023/03/14 00:15:18;;;;;;;3.67;1.20;;;12.90;1.00;;;;;;5060688;28;20518;-76
2023/03/14 00:17:45;;;;;;;4.30;1.30;;;12.80;1.00;;;;;;5057040;28;20489;-77
2023/03/14 00:20:13;;;;;;;4.57;1.50;;;12.80;1.00;;;;;;5053419;28;20464;-76
2023/03/14 00:22:42;;;;;;;4.67;1.30;;;12.80;1.00;;;;;;5057957;28;20454;-76
2023/03/14 00:25:12;;;;;;;5.40;1.50;;;12.70;1.00;;;;;;5052839;28;20517;-77
2023/03/14 00:27:41;;;;;;;4.30;0.90;;;12.70;1.00;;;;;;5050418;28;20473;-76
2023/03/14 00:30:10;;;;;;;4.20;1.40;;;12.70;1.00;;;;;;5050965;28;20551;-77
2023/03/14 00:32:37;;;;;;;3.67;1.10;;;12.60;1.00;;;;;;5048665;28;20606;-77
2023/03/14 00:35:05;;;;;;;4.30;1.40;;;12.60;1.00;;;;;;5049813;28;20460;-77
2023/03/14 00:37:32;;;;;;;4.40;1.30;;;12.60;1.00;;;;;;5055489;28;20473;-77
2023/03/14 00:40:00;;;;;;;4.47;1.57;;;12.50;1.00;;;;;;5053361;28;20953;-77
2023/03/14 00:42:31;;;;;;;4.00;1.40;;;12.50;1.00;;;;;;5057552;28;20492;-76
2023/03/14 00:44:58;;;;;;;4.70;1.30;;;12.50;1.00;;;;;;5051404;28;20457;-77
2023/03/14 00:47:25;;;;;;;4.93;1.30;;;12.50;1.00;;;;;;5051758;28;20458;-77
2023/03/14 00:49:52;;;;;;;4.53;1.23;;;12.50;1.00;;;;;;5052085;28;20469;-77
2023/03/14 00:52:19;;;;;;;4.00;1.30;;;12.40;1.00;;;;;;5055074;28;20463;-77
2023/03/14 00:54:46;;;;;;;6.40;1.70;;;12.40;1.00;;;;;;5055447;28;20460;-76
2023/03/14 00:57:14;;;;;;;5.40;1.43;;;12.40;1.00;;;;;;5055763;28;20453;-77
2023/03/14 00:59:41;;;;;;;3.67;1.13;;;12.30;1.00;;;;;;5061684;28;20464;-76
2023/03/14 01:02:11;;;;;;;5.47;1.67;;;12.40;1.00;;;;;;5053147;28;20498;-75
2023/03/14 01:04:39;;;;;;;4.33;1.57;;;12.30;1.00;;;;;;5061890;28;20560;-77
2023/03/14 01:07:06;;;;;;;4.23;1.40;;;12.30;1.00;;;;;;5054934;28;21136;-77
2023/03/14 01:09:33;;;;;;;3.67;1.10;;;12.30;1.00;;;;;;5058127;28;20552;-77
2023/03/14 01:12:00;;;;;;;4.40;1.37;;;12.30;1.00;;;;;;5061186;28;21283;-77
2023/03/14 01:14:28;;;;;;;4.80;1.37;;;12.30;1.00;;;;;;5060121;28;21247;-77
2023/03/14 01:17:00;;;;;;;5.10;1.50;;;12.20;1.00;;;;;;5056595;28;20475;-77
2023/03/14 01:19:27;;;;;;;4.30;1.07;;;12.20;1.00;;;;;;5058451;28;21244;-77
2023/03/14 01:21:55;;;;;;;4.50;1.40;;;12.10;1.00;;;;;;5056141;28;20548;-77
2023/03/14 01:24:22;;;;;;;5.63;1.20;;;12.10;1.00;;;;;;5056910;27;20469;-77
2023/03/14 01:26:49;;;;;;;3.80;1.20;;;12.10;1.00;;;;;;5056009;28;20665;-77
2023/03/14 01:29:16;;;;;;;4.57;1.50;;;12.10;1.00;;;;;;5057942;28;20500;-77
2023/03/14 01:31:44;;;;;;;4.70;1.50;;;12.10;1.00;;;;;;5059612;28;20994;-77
2023/03/14 01:34:11;;;;;;;4.13;1.50;;;12.10;1.00;;;;;;5054459;28;20576;-77
2023/03/14 01:36:41;;;;;;;4.77;1.53;;;12.10;1.00;;;;;;5054106;28;20458;-78
2023/03/14 01:39:09;;;;;;;4.17;1.60;;;12.10;1.00;;;;;;5048404;28;20455;-77
2023/03/14 01:41:36;;;;;;;6.70;2.00;;;12.20;1.00;;;;;;5053433;28;20445;-77
2023/03/14 01:44:03;;;;;;;5.93;1.27;;;12.20;1.00;;;;;;5057862;28;20648;-77
2023/03/14 01:46:39;;;;;;;4.47;1.17;;;12.30;1.00;;;;;;5055382;28;20475;-77
2023/03/14 01:49:21;;;;;;;4.10;1.57;;;12.30;1.00;;;;;;5057220;28;20552;-77
2023/03/14 01:51:53;;;;;;;3.90;1.13;;;12.30;1.00;;;;;;5056966;28;20547;-77
2023/03/14 01:54:24;;;;;;;4.50;1.30;;;12.30;1.00;;;;;;5065093;28;20551;-76
2023/03/14 01:56:58;;;;;;;4.00;1.10;;;12.30;1.00;;;;;;5042767;28;20496;-77
2023/03/14 01:59:28;;;;;;;3.77;1.10;;;12.30;1.00;;;;;;5058793;28;20473;-77
2023/03/14 02:01:56;;;;;;;3.93;1.17;;;12.30;1.00;;;;;;5062701;28;21663;-78
2023/03/14 02:04:29;;;;;;;4.33;1.37;;;12.30;1.00;;;;;;5087270;27;20596;-77
2023/03/14 02:07:01;;;;;;;4.77;1.30;;;12.30;1.00;;;;;;5051410;28;20457;-77
2023/03/14 02:09:28;;;;;;;4.40;1.50;;;12.30;1.00;;;;;;5062669;28;20514;-77
2023/03/14 02:11:55;;;;;;;4.50;1.53;;;12.20;1.00;;;;;;5063189;28;20483;-77
2023/03/14 02:14:32;;;;;;;4.33;1.40;;;12.20;1.00;;;;;;5060785;28;20548;-78
2023/03/14 02:17:01;;;;;;;3.80;1.40;;;12.10;1.00;;;;;;5060404;28;20491;-77
2023/03/14 02:19:40;;;;;;;5.80;1.40;;;12.10;1.00;;;;;;5057442;28;20508;-79
2023/03/14 02:22:11;;;;;;;4.30;1.57;;;12.00;1.00;;;;;;5050679;28;20527;-78
2023/03/14 02:24:47;;;;;;;3.90;1.37;;;12.00;1.00;;;;;;5058213;28;21071;-77
2023/03/14 02:27:17;;;;;;;3.80;1.10;;;12.00;1.00;;;;;;5052951;27;20478;-77
2023/03/14 02:29:50;;;;;;;4.37;1.40;;;11.90;1.00;;;;;;5052483;28;20606;-79
2023/03/14 02:32:28;;;;;;;5.83;1.43;;;11.90;1.00;;;;;;5052750;28;20573;-76
2023/03/14 02:34:58;;;;;;;3.70;1.07;;;11.90;1.00;;;;;;5050276;28;20517;-78
2023/03/14 02:37:31;;;;;;;3.90;1.20;;;11.90;1.00;;;;;;5053875;28;20463;-76
2023/03/14 02:39:58;;;;;;;3.70;1.23;;;12.00;1.00;;;;;;5052321;28;20564;-78
2023/03/14 02:42:26;;;;;;;4.97;1.60;;;12.00;1.00;;;;;;5055573;28;20547;-78
2023/03/14 02:44:59;;;;;;;4.60;1.30;;;12.10;1.00;;;;;;5055786;28;20497;-78
2023/03/14 02:47:29;;;;;;;4.00;1.10;;;12.00;1.00;;;;;;5051043;28;20905;-77
2023/03/14 02:50:03;;;;;;;3.80;1.43;;;12.10;1.00;;;;;;5052974;28;20499;-77
2023/03/14 02:52:31;;;;;;;7.30;1.40;;;12.00;1.00;;;;;;5060166;28;20466;-78
2023/03/14 02:54:57;;;;;;;4.10;1.30;;;12.00;1.00;;;;;;5058110;28;20548;-77
2023/03/14 02:57:26;;;;;;;4.80;1.27;;;12.00;1.00;;;;;;5055892;28;20457;-77
2023/03/14 02:59:53;;;;;;;4.07;1.13;;;12.00;1.00;;;;;;5052294;28;21337;-77
2023/03/14 03:02:20;;;;;;;3.80;1.20;;;12.00;1.00;;;;;;5050755;28;21337;-77
2023/03/14 03:04:50;;;;;;;4.30;1.47;;;11.90;1.00;;;;;;5057124;28;20504;-77
2023/03/14 03:07:17;;;;;;;3.73;1.17;;;11.90;1.00;;;;;;5053232;28;20949;-77
2023/03/14 03:09:46;;;;;;;5.80;1.30;;;11.90;1.00;;;;;;5053534;28;20476;-78
2023/03/14 03:12:13;;;;;;;6.53;1.70;;;11.80;1.00;;;;;;5055279;28;20453;-77
2023/03/14 03:14:42;;;;;;;6.40;1.53;;;11.80;1.00;;;;;;5052280;28;20429;-78
2023/03/14 03:17:10;;;;;;;4.93;1.40;;;11.80;1.00;;;;;;5059443;28;20457;-76
2023/03/14 03:19:37;;;;;;;4.10;1.53;;;11.80;1.00;;;;;;5054418;28;20560;-76
2023/03/14 03:22:04;;;;;;;4.70;1.43;;;11.80;1.00;;;;;;5047872;28;20456;-76
2023/03/14 03:24:31;;;;;;;4.30;1.27;;;11.70;1.00;;;;;;5054119;28;20465;-77
2023/03/14 03:26:57;;;;;;;4.10;1.30;;;11.80;1.00;;;;;;5056475;28;20600;-77
2023/03/14 03:29:24;;;;;;;6.30;1.53;;;11.70;1.00;;;;;;5058005;28;20941;-77
2023/03/14 03:31:55;;;;;;;3.70;1.30;;;11.70;1.00;;;;;;5057084;28;23029;-77
2023/03/14 03:34:22;;;;;;;3.63;1.10;;;11.70;1.00;;;;;;5056842;28;21304;-76
2023/03/14 03:36:49;;;;;;;3.80;1.20;;;11.70;1.00;;;;;;5051279;28;20520;-76
2023/03/14 03:39:16;;;;;;;4.63;1.07;;;11.70;1.00;;;;;;5052094;28;20468;-77
2023/03/14 03:41:43;;;;;;;3.70;1.00;;;11.70;1.00;;;;;;5054534;28;20562;-76
2023/03/14 03:44:09;;;;;;;4.97;0.93;;;11.70;1.00;;;;;;5055547;28;21737;-77
2023/03/14 03:46:36;;;;;;;4.00;1.10;;;11.70;1.00;;;;;;5057336;28;20470;-77
2023/03/14 03:49:05;;;;;;;4.20;1.63;;;11.60;1.00;;;;;;5056065;28;20456;-77
2023/03/14 03:51:31;;;;;;;4.90;1.67;;;11.60;1.00;;;;;;5052170;28;21029;-77
2023/03/14 03:54:00;;;;;;;4.50;1.30;;;11.60;1.00;;;;;;5051970;28;20938;-77
2023/03/14 03:56:27;;;;;;;4.27;1.23;;;11.60;1.00;;;;;;5055765;28;20613;-77
2023/03/14 03:58:54;;;;;;;5.37;1.43;;;11.60;1.00;;;;;;5054623;28;20479;-77
2023/03/14 04:01:22;;;;;;;5.60;1.10;;;11.60;1.00;;;;;;5061903;28;20907;-78
2023/03/14 04:03:49;;;;;;;3.67;1.10;;;11.60;1.00;;;;;;5051407;28;20514;-76
2023/03/14 04:06:17;;;;;;;4.27;1.33;;;11.60;1.00;;;;;;5058538;28;21283;-77
2023/03/14 04:08:44;;;;;;;3.90;1.00;;;11.50;1.00;;;;;;5072871;27;20497;-77
2023/03/14 04:11:11;;;;;;;4.30;1.30;;;11.50;1.00;;;;;;5038298;28;20461;-76
2023/03/14 04:13:38;;;;;;;4.23;1.40;;;11.60;1.00;;;;;;5043031;28;20473;-76
2023/03/14 04:16:15;;;;;;;5.13;1.40;;;11.60;1.00;;;;;;5057338;28;20448;-76
2023/03/14 04:18:42;;;;;;;4.53;1.10;;;11.50;1.00;;;;;;5057614;27;21156;-77
2023/03/14 04:21:09;;;;;;;4.17;1.30;;;11.50;1.00;;;;;;5058231;27;20451;-76
2023/03/14 04:23:37;;;;;;;4.67;1.33;;;11.50;1.00;;;;;;5047049;28;20461;-77
2023/03/14 04:26:05;;;;;;;5.50;1.83;;;11.50;1.00;;;;;;5044060;28;20468;-77
2023/03/14 04:28:32;;;;;;;4.07;1.20;;;11.50;1.00;;;;;;5054230;28;20463;-77
2023/03/14 04:30:59;;;;;;;3.87;1.20;;;11.50;1.00;;;;;;5051491;28;20510;-76
2023/03/14 04:33:25;;;;;;;5.50;1.10;;;11.50;1.00;;;;;;5056948;28;20473;-77
2023/03/14 04:35:55;;;;;;;4.03;1.13;;;11.60;1.00;;;;;;5051404;28;20994;-76
2023/03/14 04:38:22;;;;;;;20.00;12.80;;;11.60;1.00;;;;;;5058239;28;20471;-77
2023/03/14 04:40:51;;;;;;;5.07;1.57;;;11.60;1.00;;;;;;5057271;28;20949;-77
2023/03/14 04:43:17;;;;;;;4.77;1.90;;;11.50;1.00;;;;;;5049737;27;20465;-77
2023/03/14 04:45:45;;;;;;;4.20;1.50;;;11.50;1.00;;;;;;5052986;28;20522;-77
2023/03/14 04:48:14;;;;;;;4.40;1.30;;;11.50;1.00;;;;;;5054381;28;20464;-77
2023/03/14 04:50:41;;;;;;;4.20;1.10;;;11.50;1.00;;;;;;5052875;28;20463;-76
2023/03/14 04:53:08;;;;;;;4.17;1.43;;;11.50;1.00;;;;;;5053577;28;20461;-77
2023/03/14 04:55:39;;;;;;;4.43;1.30;;;11.50;1.00;;;;;;5058827;28;20588;-78
2023/03/14 04:58:07;;;;;;;5.10;1.57;;;11.50;1.00;;;;;;5054916;28;20465;-77
2023/03/14 05:00:34;;;;;;;4.43;1.30;;;11.50;1.00;;;;;;5055904;28;20544;-76
2023/03/14 05:03:01;;;;;;;5.27;1.80;;;11.50;1.00;;;;;;5059473;28;20973;-76
2023/03/14 05:05:31;;;;;;;8.57;1.73;;;11.50;1.00;;;;;;5053261;28;20548;-78
2023/03/14 05:07:58;;;;;;;3.80;1.13;;;11.50;1.00;;;;;;5054286;28;20475;-76
2023/03/14 05:10:25;;;;;;;9.10;2.10;;;11.50;1.00;;;;;;5054901;28;21786;-76
2023/03/14 05:12:52;;;;;;;3.90;1.47;;;11.50;1.00;;;;;;5053873;28;20871;-76
2023/03/14 05:15:20;;;;;;;4.23;1.30;;;11.60;1.00;;;;;;5053064;28;20476;-78
2023/03/14 05:17:48;;;;;;;8.23;1.77;;;11.60;1.00;;;;;;5051445;28;20504;-77
2023/03/14 05:20:16;;;;;;;4.20;1.73;;;11.60;1.00;;;;;;5056834;28;20968;-77
2023/03/14 05:22:43;;;;;;;4.87;1.90;;;11.60;1.00;;;;;;5050688;28;20459;-78
2023/03/14 05:25:11;;;;;;;3.70;1.23;;;11.60;1.00;;;;;;5051722;28;20506;-78
2023/03/14 05:27:38;;;;;;;4.30;1.33;;;11.50;1.00;;;;;;5052149;28;20476;-78
2023/03/14 05:30:07;;;;;;;3.83;1.40;;;11.50;1.00;;;;;;5045432;28;21009;-77
2023/03/14 05:32:35;;;;;;;6.30;1.80;;;11.50;1.00;;;;;;5047247;28;20523;-77
2023/03/14 05:35:02;;;;;;;10.20;2.47;;;11.50;1.00;;;;;;5055711;28;20437;-77
2023/03/14 05:37:29;;;;;;;4.10;1.27;;;11.60;1.00;;;;;;5056778;28;20534;-77
2023/03/14 05:39:56;;;;;;;4.43;1.50;;;11.60;1.00;;;;;;5053195;28;20471;-77
2023/03/14 05:42:23;;;;;;;4.50;1.30;;;11.60;1.00;;;;;;5056300;28;20465;-77
2023/03/14 05:44:50;;;;;;;6.90;1.30;;;11.60;1.00;;;;;;5056172;28;20555;-77
2023/03/14 05:47:18;;;;;;;4.67;1.37;;;11.60;1.00;;;;;;5051941;28;20651;-78
2023/03/14 05:49:48;;;;;;;4.07;1.30;;;11.60;1.00;;;;;;5056985;28;20460;-79
2023/03/14 05:52:15;;;;;;;4.40;1.40;;;11.70;1.00;;;;;;5057611;28;20466;-76
2023/03/14 05:54:42;;;;;;;4.40;1.60;;;11.70;1.00;;;;;;5058922;28;21241;-76
2023/03/14 05:57:09;;;;;;;5.20;1.43;;;11.70;1.00;;;;;;5053850;28;20578;-75
2023/03/14 05:59:36;;;;;;;3.93;1.17;;;11.70;1.00;;;;;;5035791;27;22250;-77
2023/03/14 06:02:06;;;;;;;4.40;1.60;;;11.70;1.00;;;;;;5032464;28;20604;-79
2023/03/14 06:04:33;;;;;;;5.40;1.70;;;11.70;1.00;;;;;;5043836;28;20522;-77
2023/03/14 06:07:01;;;;;;;4.80;1.40;;;11.70;1.00;;;;;;5059372;28;20481;-77
2023/03/14 06:09:28;;;;;;;4.60;1.80;;;11.70;1.00;;;;;;5057187;28;20839;-77
2023/03/14 06:11:56;;;;;;;4.57;1.20;;;11.70;1.00;;;;;;5059279;28;20492;-76
2023/03/14 06:14:23;;;;;;;4.40;1.40;;;11.80;1.00;;;;;;5059310;28;20487;-77
2023/03/14 06:16:50;;;;;;;4.07;1.57;;;11.80;1.00;;;;;;5055374;28;21026;-77
2023/03/14 06:19:18;;;;;;;7.03;1.60;;;11.80;1.00;;;;;;5050639;28;20478;-77
2023/03/14 06:21:45;;;;;;;5.93;1.60;;;11.90;1.00;;;;;;5059453;28;21113;-76
2023/03/14 06:24:13;;;;;;;4.50;1.70;;;11.90;1.00;;;;;;5058334;28;21128;-76
2023/03/14 06:26:40;;;;;;;4.70;1.83;;;11.90;1.00;;;;;;5043133;27;20469;-77
2023/03/14 06:29:07;;;;;;;6.20;1.83;;;11.90;1.00;;;;;;5044613;28;20592;-77
2023/03/14 06:31:35;;;;;;;5.50;2.20;;;11.90;1.00;;;;;;5035406;28;20470;-76
2023/03/14 06:34:02;;;;;;;4.33;1.50;;;12.00;1.00;;;;;;5034947;28;20494;-77
2023/03/14 06:36:29;;;;;;;8.50;2.67;;;11.90;1.00;;;;;;5030105;28;20554;-78
2023/03/14 06:38:56;;;;;;;7.30;1.77;;;12.10;1.00;;;;;;5032470;28;21329;-76
2023/03/14 06:41:25;;;;;;;6.00;2.10;;;12.10;1.00;;;;;;5029788;28;21328;-78
2023/03/14 06:43:53;;;;;;;4.73;1.40;;;12.10;1.00;;;;;;5038187;28;20513;-76
2023/03/14 06:46:20;;;;;;;5.40;1.57;;;12.10;1.00;;;;;;5030022;28;21244;-75
2023/03/14 06:48:47;;;;;;;5.90;1.80;;;12.20;1.00;;;;;;5035497;28;20514;-77
2023/03/14 06:51:14;;;;;;;9.37;2.03;;;12.20;1.00;;;;;;5044673;28;20470;-77
2023/03/14 06:53:41;;;;;;;4.93;1.70;;;12.20;1.00;;;;;;5031726;28;20461;-77
2023/03/14 06:56:09;;;;;;;7.37;1.97;;;12.20;1.00;;;;;;5035531;28;20512;-77
2023/03/14 06:58:38;;;;;;;7.70;1.87;;;12.30;1.00;;;;;;5035063;28;21415;-76
2023/03/14 07:01:05;;;;;;;4.53;1.83;;;12.30;1.00;;;;;;5040038;28;20446;-79
2023/03/14 07:03:32;;;;;;;4.87;1.67;;;12.30;1.00;;;;;;5042586;28;20563;-77
2023/03/14 07:05:59;;;;;;;6.10;1.73;;;12.40;1.00;;;;;;5042418;28;20485;-78
2023/03/14 07:08:26;;;;;;;7.60;1.73;;;12.50;1.00;;;;;;5037882;28;20460;-75
2023/03/14 07:10:53;;;;;;;4.43;1.43;;;12.60;1.00;;;;;;5031998;28;20496;-80
2023/03/14 07:13:20;;;;;;;7.23;1.80;;;12.70;1.00;;;;;;5038999;28;20470;-79
2023/03/14 07:15:49;;;;;;;6.53;1.53;;;12.70;1.00;;;;;;5038175;28;20956;-78
2023/03/14 07:18:30;;;;;;;8.80;2.20;;;12.70;1.00;;;;;;5047993;28;20477;-76
2023/03/14 07:20:57;;;;;;;5.30;1.53;;;12.80;1.00;;;;;;5058081;28;20516;-78
2023/03/14 07:23:25;;;;;;;8.13;1.90;;;12.70;1.00;;;;;;5056157;28;21074;-79
2023/03/14 07:25:53;;;;;;;8.53;2.20;;;12.80;1.00;;;;;;5055705;28;20582;-79
2023/03/14 07:28:20;;;;;;;37.83;18.93;;;12.70;1.00;;;;;;5054734;28;20501;-79
2023/03/14 07:30:49;;;;;;;6.50;2.63;;;12.80;1.00;;;;;;5058579;28;20469;-78
2023/03/14 07:33:17;;;;;;;5.53;2.07;;;12.90;1.00;;;;;;5062829;28;20462;-77
2023/03/14 07:35:44;;;;;;;6.23;1.50;;;13.00;1.00;;;;;;5051041;28;20538;-78
2023/03/14 07:38:11;;;;;;;7.27;1.90;;;13.10;1.00;;;;;;5054713;28;20425;-76
2023/03/14 07:40:38;;;;;;;9.63;2.50;;;13.20;1.00;;;;;;5056830;28;20937;-78
2023/03/14 07:43:05;;;;;;;6.70;2.53;;;13.10;1.00;;;;;;5067371;28;20987;-78
2023/03/14 07:45:32;;;;;;;6.87;2.33;;;13.10;1.00;;;;;;5060725;28;21508;-77
2023/03/14 07:48:01;;;;;;;7.63;2.00;;;13.00;1.00;;;;;;5058051;28;20485;-77
2023/03/14 07:50:29;;;;;;;8.53;2.73;;;13.00;1.00;;;;;;5060753;28;20852;-77
2023/03/14 07:52:58;;;;;;;5.73;2.07;;;12.90;1.00;;;;;;5059087;28;20456;-79
2023/03/14 07:55:25;;;;;;;6.37;1.50;;;12.80;1.00;;;;;;5061338;28;20536;-80
2023/03/14 07:57:52;;;;;;;5.87;2.17;;;12.80;1.00;;;;;;5058022;28;20472;-77
2023/03/14 08:00:20;;;;;;;7.50;2.10;;;12.70;1.00;;;;;;5050139;28;20465;-77
2023/03/14 08:02:48;;;;;;;7.63;2.00;;;12.70;1.00;;;;;;5050857;28;21210;-78
2023/03/14 08:05:16;;;;;;;5.23;1.63;;;12.80;1.00;;;;;;5056076;28;20538;-78
2023/03/14 08:07:43;;;;;;;7.83;1.73;;;12.80;1.00;;;;;;5053364;28;20530;-80
2023/03/14 08:10:15;;;;;;;6.23;1.70;;;12.90;1.00;;;;;;5060128;28;20528;-79
2023/03/14 08:12:42;;;;;;;7.73;2.50;;;13.00;1.00;;;;;;5056186;28;20475;-79
2023/03/14 08:15:11;;;;;;;5.27;1.60;;;13.30;1.00;;;;;;5058536;28;21224;-77
2023/03/14 08:17:38;;;;;;;5.23;1.53;;;13.50;1.00;;;;;;5059199;28;20453;-76
2023/03/14 08:20:08;;;;;;;6.70;1.70;;;13.60;1.00;;;;;;5062978;28;22089;-77
2023/03/14 08:22:36;;;;;;;8.93;4.03;;;13.60;1.00;;;;;;5066035;28;20473;-77
2023/03/14 08:25:04;;;;;;;5.53;2.20;;;13.60;1.00;;;;;;5059596;28;20473;-76
2023/03/14 08:27:32;;;;;;;8.67;2.20;;;13.60;1.00;;;;;;5060345;28;20512;-77
2023/03/14 08:30:02;;;;;;;6.10;1.57;;;13.70;1.00;;;;;;5062887;28;20460;-87
2023/03/14 08:32:29;;;;;;;5.50;1.87;;;13.70;1.00;;;;;;5067888;28;20480;-86
2023/03/14 08:34:56;;;;;;;8.60;2.50;;;13.60;1.00;;;;;;5064036;28;20470;-77
2023/03/14 08:37:24;;;;;;;6.53;2.00;;;13.70;1.00;;;;;;5055505;28;20491;-80
2023/03/14 08:39:52;;;;;;;4.87;1.70;;;13.70;1.00;;;;;;5062327;28;20452;-81
2023/03/14 08:42:22;;;;;;;5.33;2.03;;;13.70;1.00;;;;;;5065976;28;20420;-87
2023/03/14 08:44:49;;;;;;;5.53;2.00;;;13.70;1.00;;;;;;5061723;28;21006;-78
2023/03/14 08:47:16;;;;;;;7.50;1.77;;;13.60;1.00;;;;;;5063025;28;20496;-85
2023/03/14 08:49:43;;;;;;;4.93;2.00;;;13.60;1.00;;;;;;5057875;28;20465;-82
2023/03/14 08:52:10;;;;;;;6.63;1.83;;;13.60;1.00;;;;;;5057377;28;20464;-83
2023/03/14 08:54:40;;;;;;;4.73;1.30;;;13.60;1.00;;;;;;5040055;28;20464;-85
2023/03/14 08:57:08;;;;;;;8.10;2.20;;;13.50;1.00;;;;;;5030301;28;20513;-83
2023/03/14 08:59:35;;;;;;;5.63;1.57;;;13.60;1.00;;;;;;5039034;28;20494;-79
2023/03/14 09:02:03;;;;;;;6.27;1.53;;;13.70;1.00;;;;;;5040241;28;20917;-80
2023/03/14 09:04:30;;;;;;;5.80;1.70;;;13.70;1.00;;;;;;5043319;28;21086;-83
2023/03/14 09:06:58;;;;;;;7.90;2.13;;;13.70;1.00;;;;;;5039907;28;20556;-81
2023/03/14 09:09:26;;;;;;;6.50;2.37;;;13.70;1.00;;;;;;5037787;28;20469;-80
2023/03/14 09:11:53;;;;;;;8.03;2.30;;;13.80;1.00;;;;;;5064011;28;20474;-81
2023/03/14 09:14:21;;;;;;;10.83;2.27;;;13.80;1.00;;;;;;5058727;28;20515;-82
2023/03/14 09:16:48;;;;;;;6.20;2.17;;;13.90;1.00;;;;;;5057941;28;20508;-83
2023/03/14 09:19:15;;;;;;;6.37;2.10;;;14.00;1.00;;;;;;5067683;28;20484;-81
2023/03/14 09:21:42;;;;;;;6.53;2.00;;;14.20;1.00;;;;;;5064304;28;20470;-83
2023/03/14 09:24:09;;;;;;;7.90;2.33;;;15.10;1.00;;;;;;5058882;28;20455;-81
2023/03/14 09:26:36;;;;;;;7.17;1.87;;;16.60;1.00;;;;;;5059899;28;20631;-82
2023/03/14 09:29:03;;;;;;;6.67;1.67;;;18.20;1.00;;;;;;5058785;28;20464;-81
2023/03/14 09:31:32;;;;;;;10.90;2.00;;;19.30;1.00;;;;;;5055399;27;20550;-81
2023/03/14 09:33:59;;;;;;;6.67;1.87;;;20.50;1.00;;;;;;5054332;28;20466;-80
2023/03/14 09:36:26;;;;;;;10.10;2.10;;;21.20;1.00;;;;;;5056913;28;20533;-78
2023/03/14 09:38:53;;;;;;;7.60;1.47;;;22.20;1.00;;;;;;5050619;28;20528;-77
2023/03/14 09:41:25;;;;;;;7.67;1.80;;;22.50;1.00;;;;;;5046257;28;20464;-76
2023/03/14 09:43:59;;;;;;;6.30;1.77;;;22.50;1.00;;;;;;5056412;28;21267;-77
2023/03/14 09:46:26;;;;;;;7.50;1.50;;;22.80;1.00;;;;;;5058586;28;20473;-77
2023/03/14 09:48:54;;;;;;;7.67;1.73;;;23.00;1.00;;;;;;5059123;28;20465;-77
2023/03/14 09:51:23;;;;;;;10.50;1.87;;;22.40;1.00;;;;;;5062988;28;20520;-78
2023/03/14 09:53:51;;;;;;;6.47;1.47;;;21.30;1.00;;;;;;5057962;28;20499;-78
2023/03/14 09:56:21;;;;;;;6.40;1.50;;;19.60;1.00;;;;;;5057796;28;20456;-78
2023/03/14 09:58:54;;;;;;;7.07;1.90;;;18.20;1.00;;;;;;5051891;28;20467;-78
2023/03/14 10:01:26;;;;;;;7.70;1.63;;;17.10;1.00;;;;;;5054252;28;20590;-76
2023/03/14 10:03:57;;;;;;;7.60;1.50;;;16.50;1.00;;;;;;5048183;28;20470;-78
2023/03/14 10:06:27;;;;;;;8.67;1.67;;;16.00;1.00;;;;;;5053258;28;20460;-83
2023/03/14 10:08:56;;;;;;;6.80;1.80;;;15.80;1.00;;;;;;5059129;28;20427;-85
2023/03/14 10:11:24;;;;;;;5.60;1.37;;;15.60;1.00;;;;;;5061114;28;20457;-83
2023/03/14 10:14:05;;;;;;;8.73;1.80;;;15.40;1.00;;;;;;5058799;28;20486;-83
2023/03/14 10:16:34;;;;;;;8.30;2.10;;;15.20;1.00;;;;;;5058531;27;20471;-82
2023/03/14 10:19:08;;;;;;;8.57;2.60;;;15.10;1.00;;;;;;5054525;27;20562;-83
2023/03/14 10:21:40;;;;;;;9.47;2.20;;;15.10;1.00;;;;;;5050947;27;20453;-82
2023/03/14 10:24:22;;;;;;;7.80;2.00;;;15.20;1.00;;;;;;5032160;28;21251;-82
2023/03/14 10:26:51;;;;;;;14.07;8.77;;;15.10;1.00;;;;;;5037318;28;20969;-82
2023/03/14 10:29:18;;;;;;;7.10;2.03;;;15.10;1.00;;;;;;5031280;28;20439;-82
2023/03/14 10:31:52;;;;;;;8.80;1.73;;;15.20;1.00;;;;;;5054250;28;20451;-83
2023/03/14 10:34:28;;;;;;;8.57;1.70;;;15.20;1.00;;;;;;5062475;28;20615;-84
2023/03/14 10:36:57;;;;;;;6.50;1.33;;;15.10;1.00;;;;;;5064255;28;20976;-84
2023/03/14 10:39:42;;;;;;;6.30;1.53;;;14.90;1.00;;;;;;5058870;28;20465;-82
2023/03/14 10:42:17;;;;;;;6.90;2.47;;;14.80;1.00;;;;;;5063543;28;20430;-84
2023/03/14 10:44:45;;;;;;;6.90;1.60;;;14.70;1.00;;;;;;5062438;28;20475;-85
2023/03/14 10:47:19;;;;;;;6.33;1.50;;;14.60;1.00;;;;;;5051620;28;20930;-83
2023/03/14 10:49:48;;;;;;;6.17;1.83;;;14.50;1.00;;;;;;5056348;28;20486;-81
2023/03/14 10:52:22;;;;;;;6.53;1.70;;;14.40;1.00;;;;;;5057813;28;20938;-82
2023/03/14 10:54:54;;;;;;;5.00;1.17;;;14.50;1.00;;;;;;5054158;28;20876;-85
2023/03/14 10:57:21;;;;;;;4.90;1.03;;;14.50;1.00;;;;;;5057933;28;20451;-82
2023/03/14 10:59:49;;;;;;;6.70;1.40;;;14.50;1.00;;;;;;5058233;28;20461;-83
2023/03/14 11:02:35;;;;;;;5.87;1.20;;;14.40;1.00;;;;;;5060630;28;20471;-84
2023/03/14 11:05:15;;;;;;;7.03;1.30;;;14.40;1.00;;;;;;5065943;28;20622;-85
2023/03/14 11:07:44;;;;;;;8.20;1.40;;;14.30;1.00;;;;;;5064061;28;20462;-85
2023/03/14 11:10:20;;;;;;;5.10;0.90;;;14.40;1.00;;;;;;5046561;27;20467;-83
2023/03/14 11:13:02;;;;;;;6.90;1.60;;;14.40;1.00;;;;;;5037155;28;20484;-81
2023/03/14 11:15:34;;;;;;;6.80;1.73;;;14.50;1.00;;;;;;5035220;28;20476;-78
2023/03/14 11:18:39;;;;;;;6.67;1.67;;;14.70;1.00;;;;;;5052332;28;20588;-79
2023/03/14 11:21:14;;;;;;;5.87;1.50;;;14.90;1.00;;;;;;5041533;28;20482;-84
2023/03/14 11:23:49;;;;;;;5.50;1.50;;;14.90;1.00;;;;;;5060324;28;20444;-84
2023/03/14 11:26:27;;;;;;;5.20;1.40;;;14.90;1.00;;;;;;5052272;28;20507;-83
2023/03/14 11:28:59;;;;;;;7.50;2.00;;;14.90;1.00;;;;;;5044130;28;20478;-84
2023/03/14 11:31:28;;;;;;;6.60;1.37;;;14.70;1.00;;;;;;5046580;28;21008;-83
2023/03/14 11:34:00;;;;;;;5.50;1.30;;;14.70;1.00;;;;;;5056088;28;20521;-84
2023/03/14 11:36:38;;;;;;;9.33;1.30;;;14.80;1.00;;;;;;5064294;28;20533;-84
2023/03/14 11:39:12;;;;;;;5.40;1.27;;;14.80;1.00;;;;;;5063167;28;22865;-82
2023/03/14 11:41:42;;;;;;;9.90;1.33;;;14.70;1.00;;;;;;5061810;28;20490;-83
2023/03/14 11:44:17;;;;;;;6.23;1.60;;;14.70;1.00;;;;;;5066367;28;20463;-84
2023/03/14 11:46:49;;;;;;;7.43;1.57;;;14.70;1.00;;;;;;5068686;28;20553;-83
2023/03/14 11:49:23;;;;;;;5.10;1.30;;;14.80;1.00;;;;;;5062148;28;20451;-83
2023/03/14 11:51:57;;;;;;;6.03;1.20;;;14.70;1.00;;;;;;5066698;28;20461;-84
2023/03/14 11:54:35;;;;;;;5.40;1.30;;;14.60;1.00;;;;;;5065828;28;20912;-88
2023/03/14 11:57:04;;;;;;;5.03;1.30;;;14.60;1.00;;;;;;5072744;28;20454;-85
2023/03/14 11:59:47;;;;;;;6.00;1.50;;;14.40;1.00;;;;;;5070885;28;20455;-87
2023/03/14 12:02:23;;;;;;;5.13;1.37;;;14.30;1.00;;;;;;5069272;28;20459;-87
2023/03/14 12:05:18;;;;;;;7.20;1.50;;;14.20;1.00;;;;;;5073657;28;20451;-86
2023/03/14 12:08:04;;;;;;;6.50;1.67;;;14.20;1.00;;;;;;5067843;28;20449;-86
2023/03/14 12:10:38;;;;;;;8.90;1.77;;;14.30;1.00;;;;;;5070685;28;20486;-88
2023/03/14 12:13:06;;;;;;;6.50;1.60;;;14.50;1.00;;;;;;5068226;28;20554;-86
2023/03/14 12:15:37;;;;;;;6.10;1.43;;;14.70;1.00;;;;;;5066756;28;20435;-87
2023/03/14 12:18:04;;;;;;;5.83;1.50;;;14.70;1.00;;;;;;5069425;28;20475;-87
2023/03/14 12:20:31;;;;;;;7.30;1.87;;;14.80;1.00;;;;;;5069632;28;20446;-84
2023/03/14 12:23:05;;;;;;;6.20;1.57;;;14.90;1.00;;;;;;5067966;28;20463;-83
2023/03/14 12:25:35;;;;;;;4.90;1.27;;;15.00;1.00;;;;;;5061362;28;20440;-82
2023/03/14 12:28:19;;;;;;;7.23;1.40;;;14.80;1.00;;;;;;5069764;28;20439;-82
2023/03/14 12:30:47;;;;;;;5.50;1.10;;;14.80;1.00;;;;;;5061237;28;20419;-83
2023/03/14 12:33:29;;;;;;;5.57;1.10;;;14.60;1.00;;;;;;5058860;28;20356;-80
2023/03/14 12:36:53;;;;;;;7.20;1.40;;;14.60;1.00;;;;;;5054575;28;20467;-78
2023/03/14 12:39:36;;;;;;;5.60;1.50;;;14.70;1.00;;;;;;5063044;28;20478;-86
2023/03/14 12:42:05;;;;;;;5.33;1.13;;;14.90;1.00;;;;;;5063157;28;20453;-85
2023/03/14 12:44:47;;;;;;;5.83;1.40;;;14.70;1.00;;;;;;5070442;27;23030;-86
2023/03/14 12:47:53;;;;;;;5.27;1.53;;;14.70;1.00;;;;;;5077495;27;20460;-84
2023/03/14 12:50:26;;;;;;;5.40;1.23;;;14.80;1.00;;;;;;5051340;28;20460;-87
2023/03/14 12:53:08;;;;;;;5.40;1.27;;;14.70;1.00;;;;;;5046504;28;20618;-86
2023/03/14 12:55:43;;;;;;;5.43;1.30;;;14.60;1.00;;;;;;5056693;28;20551;-89
2023/03/14 12:58:19;;;;;;;5.73;1.00;;;14.70;1.00;;;;;;5075563;28;20431;-91
2023/03/14 13:00:52;;;;;;;5.40;1.40;;;14.90;1.00;;;;;;5068958;28;20509;-86
2023/03/14 13:03:22;;;;;;;6.37;1.83;;;14.90;1.00;;;;;;5074899;28;20442;-88
2023/03/14 13:06:01;;;;;;;5.47;1.30;;;14.90;1.00;;;;;;5071804;28;20459;-87
2023/03/14 13:08:38;;;;;;;5.80;1.17;;;14.80;1.00;;;;;;5076621;28;20507;-90
2023/03/14 13:11:11;;;;;;;5.60;1.73;;;14.70;1.00;;;;;;5069376;28;21408;-88